Terminal Aerodrome Forecast
Issued by NWS Sterling, VA

Current Version | Previous Version | Graphics & Text | Print | Product List | Glossary On
Versions: 1 2 3 4 5 6 7 8 9 10 11 12 13 14 15 16 17 18 19 20 21 22 23 24 25
392
FTUS41 KLWX 152340
TAFDCA
TAF
KDCA 152340Z 1600/1624 35004KT P6SM SCT020 BKN070
     FM160400 00000KT P6SM BKN020
     FM160700 00000KT 3SM BR BKN010
     FM161200 00000KT 6SM BR BKN015
     FM161400 36004KT P6SM BKN025
     FM161600 36005KT P6SM BKN250
     FM162100 29005KT P6SM SCT035=

USA.gov is the U.S. government's official web portal to all federal, state and local government web resources and services.